sensor_id;sensor_type;location;lat;lon;timestamp;P1;durP1;ratioP1;P2;durP2;ratioP2
18443;SDS011;9350;53.176;8.194;2022-08-20T00:01:49;18.27;;;13.10;;
18443;SDS011;9350;53.176;8.194;2022-08-20T00:04:16;16.75;;;12.27;;
18443;SDS011;9350;53.176;8.194;2022-08-20T00:06:42;18.70;;;13.02;;
18443;SDS011;9350;53.176;8.194;2022-08-20T00:09:11;17.13;;;12.95;;
18443;SDS011;9350;53.176;8.194;2022-08-20T00:11:38;16.02;;;12.57;;
18443;SDS011;9350;53.176;8.194;2022-08-20T00:14:04;16.08;;;12.38;;
18443;SDS011;9350;53.176;8.194;2022-08-20T00:16:33;16.35;;;12.95;;
18443;SDS011;9350;53.176;8.194;2022-08-20T00:19:01;18.08;;;13.13;;
18443;SDS011;9350;53.176;8.194;2022-08-20T00:21:30;17.70;;;13.05;;
18443;SDS011;9350;53.176;8.194;2022-08-20T00:23:57;21.65;;;13.50;;
18443;SDS011;9350;53.176;8.194;2022-08-20T00:26:25;19.05;;;13.63;;
18443;SDS011;9350;53.176;8.194;2022-08-20T00:28:52;18.25;;;13.05;;
18443;SDS011;9350;53.176;8.194;2022-08-20T00:31:21;17.67;;;12.93;;
18443;SDS011;9350;53.176;8.194;2022-08-20T00:33:48;19.85;;;14.15;;
18443;SDS011;9350;53.176;8.194;2022-08-20T00:36:16;20.75;;;14.35;;
18443;SDS011;9350;53.176;8.194;2022-08-20T00:38:44;19.08;;;14.25;;
18443;SDS011;9350;53.176;8.194;2022-08-20T00:41:13;18.70;;;13.75;;
18443;SDS011;9350;53.176;8.194;2022-08-20T00:43:45;17.52;;;13.43;;
18443;SDS011;9350;53.176;8.194;2022-08-20T00:46:16;18.38;;;13.57;;
18443;SDS011;9350;53.176;8.194;2022-08-20T00:48:45;19.70;;;14.57;;
18443;SDS011;9350;53.176;8.194;2022-08-20T00:51:16;17.77;;;13.50;;
18443;SDS011;9350;53.176;8.194;2022-08-20T00:53:51;17.35;;;13.43;;
18443;SDS011;9350;53.176;8.194;2022-08-20T00:56:19;19.00;;;14.32;;
18443;SDS011;9350;53.176;8.194;2022-08-20T00:58:48;18.50;;;13.88;;
18443;SDS011;9350;53.176;8.194;2022-08-20T01:01:17;18.40;;;13.48;;
18443;SDS011;9350;53.176;8.194;2022-08-20T01:03:44;20.25;;;14.35;;
18443;SDS011;9350;53.176;8.194;2022-08-20T01:06:11;23.27;;;15.65;;
18443;SDS011;9350;53.176;8.194;2022-08-20T01:08:37;18.73;;;13.85;;
18443;SDS011;9350;53.176;8.194;2022-08-20T01:11:06;19.10;;;14.10;;
18443;SDS011;9350;53.176;8.194;2022-08-20T01:13:37;16.95;;;13.27;;
18443;SDS011;9350;53.176;8.194;2022-08-20T01:16:08;19.38;;;13.90;;
18443;SDS011;9350;53.176;8.194;2022-08-20T01:18:39;19.52;;;13.55;;
18443;SDS011;9350;53.176;8.194;2022-08-20T01:21:06;17.30;;;13.35;;
18443;SDS011;9350;53.176;8.194;2022-08-20T01:23:36;19.17;;;14.50;;
18443;SDS011;9350;53.176;8.194;2022-08-20T01:26:11;18.88;;;14.00;;
18443;SDS011;9350;53.176;8.194;2022-08-20T01:28:41;19.98;;;14.45;;
18443;SDS011;9350;53.176;8.194;2022-08-20T01:31:10;23.02;;;14.90;;
18443;SDS011;9350;53.176;8.194;2022-08-20T01:33:39;20.33;;;15.02;;
18443;SDS011;9350;53.176;8.194;2022-08-20T01:36:06;19.52;;;14.65;;
18443;SDS011;9350;53.176;8.194;2022-08-20T01:38:35;18.27;;;13.60;;
18443;SDS011;9350;53.176;8.194;2022-08-20T01:41:06;18.45;;;13.52;;
18443;SDS011;9350;53.176;8.194;2022-08-20T01:43:45;19.20;;;14.20;;
18443;SDS011;9350;53.176;8.194;2022-08-20T01:46:13;20.10;;;13.85;;
18443;SDS011;9350;53.176;8.194;2022-08-20T01:48:43;20.08;;;14.18;;
18443;SDS011;9350;53.176;8.194;2022-08-20T01:51:11;22.10;;;15.50;;
18443;SDS011;9350;53.176;8.194;2022-08-20T01:53:40;20.77;;;14.50;;
18443;SDS011;9350;53.176;8.194;2022-08-20T01:56:10;21.98;;;14.73;;
18443;SDS011;9350;53.176;8.194;2022-08-20T01:58:42;19.35;;;14.00;;
18443;SDS011;9350;53.176;8.194;2022-08-20T02:01:17;19.90;;;14.45;;
18443;SDS011;9350;53.176;8.194;2022-08-20T02:03:45;20.88;;;14.73;;
18443;SDS011;9350;53.176;8.194;2022-08-20T02:06:12;20.75;;;15.60;;
18443;SDS011;9350;53.176;8.194;2022-08-20T02:08:40;20.90;;;14.85;;
18443;SDS011;9350;53.176;8.194;2022-08-20T02:11:06;22.20;;;15.68;;
18443;SDS011;9350;53.176;8.194;2022-08-20T02:13:33;22.77;;;15.25;;
18443;SDS011;9350;53.176;8.194;2022-08-20T02:16:01;23.08;;;15.35;;
18443;SDS011;9350;53.176;8.194;2022-08-20T02:18:30;21.13;;;14.10;;
18443;SDS011;9350;53.176;8.194;2022-08-20T02:20:56;21.50;;;14.50;;
18443;SDS011;9350;53.176;8.194;2022-08-20T02:23:24;24.05;;;15.50;;
18443;SDS011;9350;53.176;8.194;2022-08-20T02:25:51;26.77;;;15.85;;
18443;SDS011;9350;53.176;8.194;2022-08-20T02:28:18;20.83;;;15.50;;
18443;SDS011;9350;53.176;8.194;2022-08-20T02:30:47;24.08;;;16.25;;
18443;SDS011;9350;53.176;8.194;2022-08-20T02:33:18;21.55;;;16.20;;
18443;SDS011;9350;53.176;8.194;2022-08-20T02:35:46;22.17;;;16.77;;
18443;SDS011;9350;53.176;8.194;2022-08-20T02:38:15;25.85;;;16.90;;
18443;SDS011;9350;53.176;8.194;2022-08-20T02:40:42;23.63;;;16.77;;
18443;SDS011;9350;53.176;8.194;2022-08-20T02:43:10;21.80;;;16.25;;
18443;SDS011;9350;53.176;8.194;2022-08-20T02:45:38;22.20;;;15.57;;
18443;SDS011;9350;53.176;8.194;2022-08-20T02:48:08;24.00;;;15.90;;
18443;SDS011;9350;53.176;8.194;2022-08-20T02:50:37;23.40;;;16.25;;
18443;SDS011;9350;53.176;8.194;2022-08-20T02:53:08;23.85;;;16.38;;
18443;SDS011;9350;53.176;8.194;2022-08-20T02:55:35;24.60;;;16.83;;
18443;SDS011;9350;53.176;8.194;2022-08-20T02:58:02;22.25;;;16.90;;
18443;SDS011;9350;53.176;8.194;2022-08-20T03:00:29;26.63;;;18.50;;
18443;SDS011;9350;53.176;8.194;2022-08-20T03:02:57;24.33;;;17.35;;
18443;SDS011;9350;53.176;8.194;2022-08-20T03:05:24;23.40;;;16.35;;
18443;SDS011;9350;53.176;8.194;2022-08-20T03:07:52;24.08;;;16.63;;
18443;SDS011;9350;53.176;8.194;2022-08-20T03:10:22;24.48;;;16.63;;
18443;SDS011;9350;53.176;8.194;2022-08-20T03:12:50;25.80;;;17.27;;
18443;SDS011;9350;53.176;8.194;2022-08-20T03:15:17;25.95;;;17.13;;
18443;SDS011;9350;53.176;8.194;2022-08-20T03:17:45;27.52;;;17.70;;
18443;SDS011;9350;53.176;8.194;2022-08-20T03:20:12;26.63;;;17.17;;
18443;SDS011;9350;53.176;8.194;2022-08-20T03:22:39;26.10;;;16.73;;
18443;SDS011;9350;53.176;8.194;2022-08-20T03:25:08;23.80;;;15.90;;
18443;SDS011;9350;53.176;8.194;2022-08-20T03:27:36;23.58;;;16.13;;
18443;SDS011;9350;53.176;8.194;2022-08-20T03:30:03;21.77;;;16.13;;
18443;SDS011;9350;53.176;8.194;2022-08-20T03:32:31;25.88;;;15.75;;
18443;SDS011;9350;53.176;8.194;2022-08-20T03:34:58;24.85;;;16.17;;
18443;SDS011;9350;53.176;8.194;2022-08-20T03:37:27;25.38;;;17.08;;
18443;SDS011;9350;53.176;8.194;2022-08-20T03:39:54;27.55;;;17.38;;
18443;SDS011;9350;53.176;8.194;2022-08-20T03:42:23;23.73;;;16.85;;
18443;SDS011;9350;53.176;8.194;2022-08-20T03:44:50;26.90;;;17.45;;
18443;SDS011;9350;53.176;8.194;2022-08-20T03:47:17;24.75;;;16.58;;
18443;SDS011;9350;53.176;8.194;2022-08-20T03:49:44;21.85;;;15.65;;
18443;SDS011;9350;53.176;8.194;2022-08-20T03:52:11;24.20;;;16.67;;
18443;SDS011;9350;53.176;8.194;2022-08-20T03:54:39;29.00;;;18.30;;
18443;SDS011;9350;53.176;8.194;2022-08-20T03:57:07;23.48;;;17.38;;
18443;SDS011;9350;53.176;8.194;2022-08-20T03:59:39;26.90;;;18.08;;
18443;SDS011;9350;53.176;8.194;2022-08-20T04:02:06;24.90;;;17.08;;
18443;SDS011;9350;53.176;8.194;2022-08-20T04:04:34;28.52;;;18.45;;
18443;SDS011;9350;53.176;8.194;2022-08-20T04:07:07;28.30;;;18.00;;
18443;SDS011;9350;53.176;8.194;2022-08-20T04:09:35;32.40;;;18.45;;
18443;SDS011;9350;53.176;8.194;2022-08-20T04:12:03;29.80;;;18.35;;
18443;SDS011;9350;53.176;8.194;2022-08-20T04:14:30;29.65;;;18.80;;
18443;SDS011;9350;53.176;8.194;2022-08-20T04:17:03;26.02;;;18.63;;
18443;SDS011;9350;53.176;8.194;2022-08-20T04:19:31;26.55;;;17.90;;
18443;SDS011;9350;53.176;8.194;2022-08-20T04:21:58;28.50;;;18.88;;
18443;SDS011;9350;53.176;8.194;2022-08-20T04:24:25;30.67;;;18.52;;
18443;SDS011;9350;53.176;8.194;2022-08-20T04:26:52;26.80;;;17.48;;
18443;SDS011;9350;53.176;8.194;2022-08-20T04:29:19;28.73;;;17.98;;
18443;SDS011;9350;53.176;8.194;2022-08-20T04:31:46;27.00;;;18.58;;
18443;SDS011;9350;53.176;8.194;2022-08-20T04:34:14;25.48;;;17.30;;
18443;SDS011;9350;53.176;8.194;2022-08-20T04:36:43;29.98;;;18.50;;
18443;SDS011;9350;53.176;8.194;2022-08-20T04:39:10;29.45;;;19.15;;
18443;SDS011;9350;53.176;8.194;2022-08-20T04:41:37;27.15;;;17.92;;
18443;SDS011;9350;53.176;8.194;2022-08-20T04:44:03;27.75;;;17.73;;
18443;SDS011;9350;53.176;8.194;2022-08-20T04:46:30;26.77;;;17.65;;
18443;SDS011;9350;53.176;8.194;2022-08-20T04:48:57;29.00;;;17.98;;
18443;SDS011;9350;53.176;8.194;2022-08-20T04:51:28;28.77;;;18.67;;
18443;SDS011;9350;53.176;8.194;2022-08-20T04:53:56;26.92;;;17.85;;
18443;SDS011;9350;53.176;8.194;2022-08-20T04:56:24;27.13;;;17.60;;
18443;SDS011;9350;53.176;8.194;2022-08-20T04:58:53;23.95;;;16.83;;
18443;SDS011;9350;53.176;8.194;2022-08-20T05:01:25;23.63;;;16.20;;
18443;SDS011;9350;53.176;8.194;2022-08-20T05:03:53;22.27;;;16.13;;
18443;SDS011;9350;53.176;8.194;2022-08-20T05:06:21;29.20;;;16.48;;
18443;SDS011;9350;53.176;8.194;2022-08-20T05:08:51;23.40;;;15.52;;
18443;SDS011;9350;53.176;8.194;2022-08-20T05:11:20;25.52;;;16.15;;
18443;SDS011;9350;53.176;8.194;2022-08-20T05:13:46;24.20;;;16.42;;
18443;SDS011;9350;53.176;8.194;2022-08-20T05:16:14;26.27;;;15.77;;
18443;SDS011;9350;53.176;8.194;2022-08-20T05:18:42;24.33;;;15.23;;
18443;SDS011;9350;53.176;8.194;2022-08-20T05:21:09;20.02;;;14.50;;
18443;SDS011;9350;53.176;8.194;2022-08-20T05:23:36;21.25;;;14.75;;
18443;SDS011;9350;53.176;8.194;2022-08-20T05:26:08;19.50;;;14.45;;
18443;SDS011;9350;53.176;8.194;2022-08-20T05:28:36;21.17;;;13.45;;
18443;SDS011;9350;53.176;8.194;2022-08-20T05:31:04;27.00;;;13.88;;
18443;SDS011;9350;53.176;8.194;2022-08-20T05:33:33;20.85;;;12.80;;
18443;SDS011;9350;53.176;8.194;2022-08-20T05:36:00;16.58;;;11.38;;
18443;SDS011;9350;53.176;8.194;2022-08-20T05:38:29;21.75;;;11.93;;
18443;SDS011;9350;53.176;8.194;2022-08-20T05:40:56;20.55;;;10.95;;
18443;SDS011;9350;53.176;8.194;2022-08-20T05:43:24;15.23;;;11.45;;
18443;SDS011;9350;53.176;8.194;2022-08-20T05:45:50;15.20;;;10.75;;
18443;SDS011;9350;53.176;8.194;2022-08-20T05:48:19;15.65;;;10.75;;
18443;SDS011;9350;53.176;8.194;2022-08-20T05:50:48;17.90;;;10.48;;
18443;SDS011;9350;53.176;8.194;2022-08-20T05:53:16;15.90;;;9.38;;
18443;SDS011;9350;53.176;8.194;2022-08-20T05:55:43;21.25;;;9.02;;
18443;SDS011;9350;53.176;8.194;2022-08-20T05:58:13;17.00;;;8.85;;
18443;SDS011;9350;53.176;8.194;2022-08-20T06:00:44;12.82;;;8.93;;
18443;SDS011;9350;53.176;8.194;2022-08-20T06:03:11;15.35;;;8.20;;
18443;SDS011;9350;53.176;8.194;2022-08-20T06:05:55;14.90;;;8.15;;
18443;SDS011;9350;53.176;8.194;2022-08-20T06:08:22;12.88;;;7.32;;
18443;SDS011;9350;53.176;8.194;2022-08-20T06:10:49;14.93;;;7.07;;
18443;SDS011;9350;53.176;8.194;2022-08-20T06:13:16;14.52;;;7.00;;
18443;SDS011;9350;53.176;8.194;2022-08-20T06:15:44;12.52;;;7.25;;
18443;SDS011;9350;53.176;8.194;2022-08-20T06:18:11;11.63;;;6.75;;
18443;SDS011;9350;53.176;8.194;2022-08-20T06:20:37;10.93;;;5.85;;
18443;SDS011;9350;53.176;8.194;2022-08-20T06:23:05;10.75;;;5.45;;
18443;SDS011;9350;53.176;8.194;2022-08-20T06:25:32;11.85;;;4.88;;
18443;SDS011;9350;53.176;8.194;2022-08-20T06:27:59;11.45;;;5.13;;
18443;SDS011;9350;53.176;8.194;2022-08-20T06:30:26;9.30;;;4.70;;
18443;SDS011;9350;53.176;8.194;2022-08-20T06:32:54;10.50;;;4.40;;
18443;SDS011;9350;53.176;8.194;2022-08-20T06:35:21;10.57;;;4.65;;
18443;SDS011;9350;53.176;8.194;2022-08-20T06:37:48;11.90;;;4.22;;
18443;SDS011;9350;53.176;8.194;2022-08-20T06:40:17;11.82;;;4.07;;
18443;SDS011;9350;53.176;8.194;2022-08-20T06:42:47;12.25;;;4.85;;
18443;SDS011;9350;53.176;8.194;2022-08-20T06:45:14;15.43;;;4.40;;
18443;SDS011;9350;53.176;8.194;2022-08-20T06:47:43;6.85;;;3.30;;
18443;SDS011;9350;53.176;8.194;2022-08-20T06:50:14;9.30;;;3.83;;
18443;SDS011;9350;53.176;8.194;2022-08-20T06:52:43;8.80;;;4.20;;
18443;SDS011;9350;53.176;8.194;2022-08-20T06:55:11;9.35;;;3.55;;
18443;SDS011;9350;53.176;8.194;2022-08-20T06:57:40;10.93;;;3.97;;
18443;SDS011;9350;53.176;8.194;2022-08-20T07:00:09;6.45;;;3.83;;
18443;SDS011;9350;53.176;8.194;2022-08-20T07:02:38;16.85;;;4.38;;
18443;SDS011;9350;53.176;8.194;2022-08-20T07:05:05;16.10;;;3.67;;
18443;SDS011;9350;53.176;8.194;2022-08-20T07:07:34;10.95;;;3.55;;
18443;SDS011;9350;53.176;8.194;2022-08-20T07:10:02;12.52;;;3.50;;
18443;SDS011;9350;53.176;8.194;2022-08-20T07:12:30;10.90;;;3.80;;
18443;SDS011;9350;53.176;8.194;2022-08-20T07:14:59;8.48;;;2.95;;
18443;SDS011;9350;53.176;8.194;2022-08-20T07:17:26;12.20;;;3.40;;
18443;SDS011;9350;53.176;8.194;2022-08-20T07:19:53;9.70;;;3.10;;
18443;SDS011;9350;53.176;8.194;2022-08-20T07:22:20;6.60;;;2.92;;
18443;SDS011;9350;53.176;8.194;2022-08-20T07:24:48;10.48;;;2.75;;
18443;SDS011;9350;53.176;8.194;2022-08-20T07:27:18;15.05;;;3.15;;
18443;SDS011;9350;53.176;8.194;2022-08-20T07:29:47;9.95;;;3.40;;
18443;SDS011;9350;53.176;8.194;2022-08-20T07:32:31;9.57;;;2.70;;
18443;SDS011;9350;53.176;8.194;2022-08-20T07:35:02;9.63;;;3.17;;
18443;SDS011;9350;53.176;8.194;2022-08-20T07:37:31;6.60;;;2.30;;
18443;SDS011;9350;53.176;8.194;2022-08-20T07:40:05;9.57;;;2.45;;
18443;SDS011;9350;53.176;8.194;2022-08-20T07:42:33;11.60;;;3.22;;
18443;SDS011;9350;53.176;8.194;2022-08-20T07:45:00;8.02;;;2.85;;
18443;SDS011;9350;53.176;8.194;2022-08-20T07:47:27;11.63;;;2.40;;
18443;SDS011;9350;53.176;8.194;2022-08-20T07:49:54;9.15;;;1.92;;
18443;SDS011;9350;53.176;8.194;2022-08-20T07:52:20;9.00;;;2.65;;
18443;SDS011;9350;53.176;8.194;2022-08-20T07:54:47;8.13;;;2.10;;
18443;SDS011;9350;53.176;8.194;2022-08-20T07:57:15;8.05;;;2.53;;
18443;SDS011;9350;53.176;8.194;2022-08-20T07:59:42;9.07;;;2.28;;
18443;SDS011;9350;53.176;8.194;2022-08-20T08:02:10;12.25;;;1.90;;
18443;SDS011;9350;53.176;8.194;2022-08-20T08:04:37;5.88;;;1.70;;
18443;SDS011;9350;53.176;8.194;2022-08-20T08:07:04;11.48;;;2.78;;
18443;SDS011;9350;53.176;8.194;2022-08-20T08:09:31;6.80;;;2.10;;
18443;SDS011;9350;53.176;8.194;2022-08-20T08:12:00;6.28;;;1.90;;
18443;SDS011;9350;53.176;8.194;2022-08-20T08:14:30;7.10;;;1.95;;
18443;SDS011;9350;53.176;8.194;2022-08-20T08:17:00;5.97;;;2.00;;
18443;SDS011;9350;53.176;8.194;2022-08-20T08:19:29;5.82;;;1.80;;
18443;SDS011;9350;53.176;8.194;2022-08-20T08:22:03;7.05;;;1.73;;
18443;SDS011;9350;53.176;8.194;2022-08-20T08:24:31;10.02;;;1.67;;
18443;SDS011;9350;53.176;8.194;2022-08-20T08:26:58;4.72;;;1.60;;
18443;SDS011;9350;53.176;8.194;2022-08-20T08:29:25;3.38;;;1.60;;
18443;SDS011;9350;53.176;8.194;2022-08-20T08:31:54;9.18;;;2.17;;
18443;SDS011;9350;53.176;8.194;2022-08-20T08:34:21;6.80;;;2.00;;
18443;SDS011;9350;53.176;8.194;2022-08-20T08:36:49;5.45;;;1.60;;
18443;SDS011;9350;53.176;8.194;2022-08-20T08:39:16;4.10;;;1.60;;
18443;SDS011;9350;53.176;8.194;2022-08-20T08:41:44;12.25;;;1.90;;
18443;SDS011;9350;53.176;8.194;2022-08-20T08:44:14;5.43;;;1.45;;
18443;SDS011;9350;53.176;8.194;2022-08-20T08:46:48;5.15;;;1.85;;
18443;SDS011;9350;53.176;8.194;2022-08-20T08:49:19;4.85;;;1.58;;
18443;SDS011;9350;53.176;8.194;2022-08-20T08:51:50;6.22;;;1.70;;
18443;SDS011;9350;53.176;8.194;2022-08-20T08:54:23;7.43;;;1.80;;
18443;SDS011;9350;53.176;8.194;2022-08-20T08:56:53;4.15;;;1.60;;
18443;SDS011;9350;53.176;8.194;2022-08-20T08:59:21;5.22;;;1.50;;
18443;SDS011;9350;53.176;8.194;2022-08-20T09:01:49;4.70;;;1.35;;
18443;SDS011;9350;53.176;8.194;2022-08-20T09:04:20;4.60;;;1.38;;
18443;SDS011;9350;53.176;8.194;2022-08-20T09:06:48;4.50;;;1.40;;
18443;SDS011;9350;53.176;8.194;2022-08-20T09:09:18;7.40;;;1.92;;
18443;SDS011;9350;53.176;8.194;2022-08-20T09:11:49;6.78;;;1.80;;
18443;SDS011;9350;53.176;8.194;2022-08-20T09:14:18;5.53;;;1.75;;
18443;SDS011;9350;53.176;8.194;2022-08-20T09:16:45;4.25;;;1.38;;
18443;SDS011;9350;53.176;8.194;2022-08-20T09:19:12;3.83;;;1.45;;
18443;SDS011;9350;53.176;8.194;2022-08-20T09:21:40;6.43;;;1.58;;
18443;SDS011;9350;53.176;8.194;2022-08-20T09:24:06;5.07;;;1.30;;
18443;SDS011;9350;53.176;8.194;2022-08-20T09:26:33;1.88;;;1.20;;
18443;SDS011;9350;53.176;8.194;2022-08-20T09:29:00;3.53;;;1.20;;
18443;SDS011;9350;53.176;8.194;2022-08-20T09:31:26;4.68;;;1.38;;
18443;SDS011;9350;53.176;8.194;2022-08-20T09:33:53;5.20;;;1.40;;
18443;SDS011;9350;53.176;8.194;2022-08-20T09:36:20;5.35;;;1.35;;
18443;SDS011;9350;53.176;8.194;2022-08-20T09:38:48;6.75;;;1.25;;
18443;SDS011;9350;53.176;8.194;2022-08-20T09:41:15;6.45;;;1.90;;
18443;SDS011;9350;53.176;8.194;2022-08-20T09:43:41;4.00;;;1.67;;
18443;SDS011;9350;53.176;8.194;2022-08-20T09:46:08;2.33;;;1.17;;
18443;SDS011;9350;53.176;8.194;2022-08-20T09:48:35;5.15;;;1.30;;
18443;SDS011;9350;53.176;8.194;2022-08-20T09:51:02;3.97;;;1.17;;
18443;SDS011;9350;53.176;8.194;2022-08-20T09:53:28;4.85;;;1.52;;
18443;SDS011;9350;53.176;8.194;2022-08-20T09:55:57;7.53;;;1.38;;
18443;SDS011;9350;53.176;8.194;2022-08-20T09:58:26;2.40;;;1.45;;
18443;SDS011;9350;53.176;8.194;2022-08-20T10:00:57;4.40;;;1.13;;
18443;SDS011;9350;53.176;8.194;2022-08-20T10:03:26;7.75;;;1.50;;
18443;SDS011;9350;53.176;8.194;2022-08-20T10:05:52;4.63;;;1.35;;
18443;SDS011;9350;53.176;8.194;2022-08-20T10:08:19;4.40;;;1.35;;
18443;SDS011;9350;53.176;8.194;2022-08-20T10:10:46;4.53;;;1.30;;
18443;SDS011;9350;53.176;8.194;2022-08-20T10:13:14;3.20;;;0.93;;
18443;SDS011;9350;53.176;8.194;2022-08-20T10:15:40;2.83;;;1.10;;
18443;SDS011;9350;53.176;8.194;2022-08-20T10:18:07;2.05;;;1.13;;
18443;SDS011;9350;53.176;8.194;2022-08-20T10:20:34;4.22;;;1.80;;
18443;SDS011;9350;53.176;8.194;2022-08-20T10:23:01;5.53;;;1.13;;
18443;SDS011;9350;53.176;8.194;2022-08-20T10:25:29;4.82;;;1.30;;
18443;SDS011;9350;53.176;8.194;2022-08-20T10:27:57;2.38;;;1.33;;
18443;SDS011;9350;53.176;8.194;2022-08-20T10:30:25;4.90;;;1.70;;
18443;SDS011;9350;53.176;8.194;2022-08-20T10:32:52;3.33;;;1.10;;
18443;SDS011;9350;53.176;8.194;2022-08-20T10:35:19;4.22;;;1.25;;
18443;SDS011;9350;53.176;8.194;2022-08-20T10:37:46;1.98;;;0.90;;
18443;SDS011;9350;53.176;8.194;2022-08-20T10:40:12;4.00;;;1.33;;
18443;SDS011;9350;53.176;8.194;2022-08-20T10:42:40;6.25;;;1.17;;
18443;SDS011;9350;53.176;8.194;2022-08-20T10:45:07;6.80;;;1.23;;
18443;SDS011;9350;53.176;8.194;2022-08-20T10:47:36;1.92;;;1.00;;
18443;SDS011;9350;53.176;8.194;2022-08-20T10:50:04;4.57;;;1.20;;
18443;SDS011;9350;53.176;8.194;2022-08-20T10:52:33;4.15;;;1.20;;
18443;SDS011;9350;53.176;8.194;2022-08-20T10:55:00;4.32;;;1.25;;
18443;SDS011;9350;53.176;8.194;2022-08-20T10:57:28;6.47;;;1.48;;
18443;SDS011;9350;53.176;8.194;2022-08-20T10:59:58;3.58;;;1.15;;
18443;SDS011;9350;53.176;8.194;2022-08-20T11:02:25;2.85;;;1.10;;
18443;SDS011;9350;53.176;8.194;2022-08-20T11:04:55;4.70;;;1.17;;
18443;SDS011;9350;53.176;8.194;2022-08-20T11:07:23;4.63;;;1.75;;
18443;SDS011;9350;53.176;8.194;2022-08-20T11:09:52;6.38;;;1.50;;
18443;SDS011;9350;53.176;8.194;2022-08-20T11:12:19;3.60;;;1.15;;
18443;SDS011;9350;53.176;8.194;2022-08-20T11:14:47;2.53;;;1.05;;
18443;SDS011;9350;53.176;8.194;2022-08-20T11:17:17;3.97;;;1.20;;
18443;SDS011;9350;53.176;8.194;2022-08-20T11:19:45;2.90;;;1.10;;
18443;SDS011;9350;53.176;8.194;2022-08-20T11:22:14;4.85;;;1.15;;
18443;SDS011;9350;53.176;8.194;2022-08-20T11:24:41;4.00;;;1.25;;
18443;SDS011;9350;53.176;8.194;2022-08-20T11:27:08;2.30;;;1.15;;
18443;SDS011;9350;53.176;8.194;2022-08-20T11:29:36;4.32;;;1.33;;
18443;SDS011;9350;53.176;8.194;2022-08-20T11:32:03;3.28;;;1.20;;
18443;SDS011;9350;53.176;8.194;2022-08-20T11:34:31;5.45;;;1.38;;
18443;SDS011;9350;53.176;8.194;2022-08-20T11:36:57;4.05;;;1.55;;
18443;SDS011;9350;53.176;8.194;2022-08-20T11:39:26;3.78;;;1.38;;
18443;SDS011;9350;53.176;8.194;2022-08-20T11:41:53;2.83;;;1.20;;
18443;SDS011;9350;53.176;8.194;2022-08-20T11:44:19;6.35;;;1.38;;
18443;SDS011;9350;53.176;8.194;2022-08-20T11:46:46;3.38;;;1.17;;
18443;SDS011;9350;53.176;8.194;2022-08-20T11:49:13;6.00;;;1.20;;
18443;SDS011;9350;53.176;8.194;2022-08-20T11:51:40;3.33;;;1.52;;
18443;SDS011;9350;53.176;8.194;2022-08-20T11:54:11;4.65;;;1.23;;
18443;SDS011;9350;53.176;8.194;2022-08-20T11:56:39;4.75;;;1.23;;
18443;SDS011;9350;53.176;8.194;2022-08-20T11:59:06;6.20;;;1.30;;
18443;SDS011;9350;53.176;8.194;2022-08-20T12:01:33;4.28;;;1.23;;
18443;SDS011;9350;53.176;8.194;2022-08-20T12:04:00;3.83;;;1.10;;
18443;SDS011;9350;53.176;8.194;2022-08-20T12:06:26;5.32;;;1.30;;
18443;SDS011;9350;53.176;8.194;2022-08-20T12:08:53;2.88;;;1.20;;
18443;SDS011;9350;53.176;8.194;2022-08-20T12:11:21;3.40;;;1.20;;
18443;SDS011;9350;53.176;8.194;2022-08-20T12:13:49;3.70;;;1.15;;
18443;SDS011;9350;53.176;8.194;2022-08-20T12:16:16;3.92;;;1.35;;
18443;SDS011;9350;53.176;8.194;2022-08-20T12:18:43;2.92;;;1.33;;
18443;SDS011;9350;53.176;8.194;2022-08-20T12:21:12;4.57;;;1.10;;
18443;SDS011;9350;53.176;8.194;2022-08-20T12:23:39;5.50;;;1.27;;
18443;SDS011;9350;53.176;8.194;2022-08-20T12:26:05;3.67;;;1.55;;
18443;SDS011;9350;53.176;8.194;2022-08-20T12:28:32;2.95;;;1.20;;
18443;SDS011;9350;53.176;8.194;2022-08-20T12:31:01;4.00;;;1.40;;
18443;SDS011;9350;53.176;8.194;2022-08-20T12:33:28;5.53;;;1.38;;
18443;SDS011;9350;53.176;8.194;2022-08-20T12:35:55;5.88;;;1.42;;
18443;SDS011;9350;53.176;8.194;2022-08-20T12:38:22;3.63;;;1.63;;
18443;SDS011;9350;53.176;8.194;2022-08-20T12:40:49;4.22;;;1.40;;
18443;SDS011;9350;53.176;8.194;2022-08-20T12:43:15;4.88;;;1.30;;
18443;SDS011;9350;53.176;8.194;2022-08-20T12:45:42;5.65;;;1.60;;
18443;SDS011;9350;53.176;8.194;2022-08-20T12:48:11;4.13;;;1.30;;
18443;SDS011;9350;53.176;8.194;2022-08-20T12:50:40;7.93;;;1.58;;
18443;SDS011;9350;53.176;8.194;2022-08-20T12:53:09;4.65;;;1.17;;
18443;SDS011;9350;53.176;8.194;2022-08-20T12:55:36;2.58;;;1.33;;
18443;SDS011;9350;53.176;8.194;2022-08-20T12:58:03;5.32;;;1.63;;
18443;SDS011;9350;53.176;8.194;2022-08-20T13:00:34;8.55;;;1.50;;
18443;SDS011;9350;53.176;8.194;2022-08-20T13:03:03;4.72;;;1.58;;
18443;SDS011;9350;53.176;8.194;2022-08-20T13:05:33;2.05;;;1.27;;
18443;SDS011;9350;53.176;8.194;2022-08-20T13:08:00;3.83;;;1.30;;
18443;SDS011;9350;53.176;8.194;2022-08-20T13:10:32;6.57;;;1.45;;
18443;SDS011;9350;53.176;8.194;2022-08-20T13:13:00;2.85;;;1.20;;
18443;SDS011;9350;53.176;8.194;2022-08-20T13:15:27;3.60;;;1.40;;
18443;SDS011;9350;53.176;8.194;2022-08-20T13:17:56;2.50;;;1.00;;
18443;SDS011;9350;53.176;8.194;2022-08-20T13:20:24;2.83;;;1.20;;
18443;SDS011;9350;53.176;8.194;2022-08-20T13:22:53;1.98;;;1.15;;
18443;SDS011;9350;53.176;8.194;2022-08-20T13:25:20;4.60;;;1.38;;
18443;SDS011;9350;53.176;8.194;2022-08-20T13:27:47;2.95;;;1.10;;
18443;SDS011;9350;53.176;8.194;2022-08-20T13:30:15;3.90;;;1.17;;
18443;SDS011;9350;53.176;8.194;2022-08-20T13:32:44;3.90;;;1.30;;
18443;SDS011;9350;53.176;8.194;2022-08-20T13:35:14;2.17;;;1.02;;
18443;SDS011;9350;53.176;8.194;2022-08-20T13:37:41;2.75;;;0.90;;
18443;SDS011;9350;53.176;8.194;2022-08-20T13:40:10;3.53;;;1.13;;
18443;SDS011;9350;53.176;8.194;2022-08-20T13:42:37;4.32;;;1.35;;
18443;SDS011;9350;53.176;8.194;2022-08-20T13:45:05;3.13;;;1.00;;
18443;SDS011;9350;53.176;8.194;2022-08-20T13:47:34;3.90;;;1.13;;
18443;SDS011;9350;53.176;8.194;2022-08-20T13:50:02;4.05;;;1.27;;
18443;SDS011;9350;53.176;8.194;2022-08-20T13:52:32;2.47;;;1.20;;
18443;SDS011;9350;53.176;8.194;2022-08-20T13:54:59;3.60;;;1.17;;
18443;SDS011;9350;53.176;8.194;2022-08-20T13:57:33;3.75;;;1.10;;
18443;SDS011;9350;53.176;8.194;2022-08-20T14:00:06;1.42;;;1.00;;
18443;SDS011;9350;53.176;8.194;2022-08-20T14:02:36;1.38;;;1.00;;
18443;SDS011;9350;53.176;8.194;2022-08-20T14:05:04;2.22;;;1.10;;
18443;SDS011;9350;53.176;8.194;2022-08-20T14:07:31;1.50;;;1.00;;
18443;SDS011;9350;53.176;8.194;2022-08-20T14:10:03;4.68;;;1.13;;
18443;SDS011;9350;53.176;8.194;2022-08-20T14:12:36;2.40;;;0.82;;
18443;SDS011;9350;53.176;8.194;2022-08-20T14:15:04;6.18;;;1.25;;
18443;SDS011;9350;53.176;8.194;2022-08-20T14:17:33;5.57;;;1.15;;
18443;SDS011;9350;53.176;8.194;2022-08-20T14:20:03;6.63;;;1.20;;
18443;SDS011;9350;53.176;8.194;2022-08-20T14:22:33;2.47;;;1.10;;
18443;SDS011;9350;53.176;8.194;2022-08-20T14:24:59;2.45;;;1.00;;
18443;SDS011;9350;53.176;8.194;2022-08-20T14:27:28;7.57;;;1.30;;
18443;SDS011;9350;53.176;8.194;2022-08-20T14:29:58;3.60;;;1.17;;
18443;SDS011;9350;53.176;8.194;2022-08-20T14:32:25;3.58;;;1.10;;
18443;SDS011;9350;53.176;8.194;2022-08-20T14:34:52;3.17;;;1.38;;
18443;SDS011;9350;53.176;8.194;2022-08-20T14:37:21;5.93;;;1.20;;
18443;SDS011;9350;53.176;8.194;2022-08-20T14:39:53;2.00;;;1.02;;
18443;SDS011;9350;53.176;8.194;2022-08-20T14:42:22;3.17;;;1.30;;
18443;SDS011;9350;53.176;8.194;2022-08-20T14:44:51;1.98;;;1.00;;
18443;SDS011;9350;53.176;8.194;2022-08-20T14:47:20;3.67;;;1.30;;
18443;SDS011;9350;53.176;8.194;2022-08-20T14:49:50;8.30;;;1.33;;
18443;SDS011;9350;53.176;8.194;2022-08-20T14:52:19;4.45;;;1.23;;
18443;SDS011;9350;53.176;8.194;2022-08-20T14:54:47;5.22;;;1.30;;
18443;SDS011;9350;53.176;8.194;2022-08-20T14:57:15;1.83;;;1.00;;